Flugplatz Münster Osnabrück

Bericht für EDDG

vom 17.07. um 23:20 UTC

Wind 2 kt aus 70°

Sichtweite 10 km oder mehr

gute Sicht, keine Wolken < 5000 ft, keine CB, keine Wettererscheinungen (CAVOK)

Temperatur 12.0°C

Taupunkt 11.0°C

Luftfeuchtigkeit 94%

Luftdruck 1013 hPa

keine wesentliche Wetteränderung innerhalb den nächsten 2 Stunden zu erwarten

EDDG 172320Z 07002KT CAVOK 12/11 Q1013 NOSIG

Prognose für EDDG

vom 17.07. um 00:00 UTC

Zwischen 00:00 UTC und 00:00 UTC

variable Windrichtung mit 2 kt

Sichtweite 10 km oder mehr

keine signifikanten Wettererscheinungen

keine Wolken


Zwischen 00:00 UTC und 00:00 UTC zeitweise mit einer Wahrscheinlichkeit von 30%

Sichtweite 1200 m

Nebelschwaden


Zwischen 00:00 UTC und 00:00 UTC zeitweise

Sichtweite 4000 m

feuchter Dunst


Zwischen 00:00 und 00:00 UTC übergehend zu

Wind 6 kt aus 230°

Sichtweite 10 km oder mehr

keine signifikanten Wettererscheinungen

keine Wolken


Zwischen 00:00 und 00:00 UTC übergehend zu

variable Windrichtung mit 3 kt

Sichtweite 10 km oder mehr

keine signifikanten Wettererscheinungen

keine Wolken

TAF EDDG 172300Z 1800/1824 VRB02KT CAVOK TEMPO 1800/1805 4000 BR PROB30 TEMPO 1800/1804 1200 BCFG BECMG 1809/1812 23006KT BECMG 1818/1821 VRB03KT
Impressum